createdAt,value
2022-12-01T10:29:50.264Z,16.87
2022-12-01T11:31:45.656Z,19.59
2022-12-01T11:34:24.421Z,20.68
2022-12-01T11:36:55.076Z,21.55
2022-12-01T11:39:29.516Z,22.25
2022-12-01T11:41:59.626Z,22.82
2022-12-01T11:44:50.386Z,23.27
2022-12-01T11:50:26.603Z,23.85
2022-12-01T11:52:53.270Z,23.86
2022-12-01T11:55:23.650Z,23.85
2022-12-01T11:57:53.577Z,23.84
2022-12-01T12:00:23.358Z,23.83
2022-12-01T12:03:09.479Z,23.84
2022-12-01T12:06:40.244Z,23.85
2022-12-01T12:08:56.951Z,23.83
2022-12-01T12:11:57.023Z,23.90
2022-12-01T12:14:35.767Z,23.93
2022-12-01T12:17:26.435Z,23.96
2022-12-01T12:20:19.208Z,23.99
2022-12-01T12:23:06.452Z,24.04
2022-12-01T12:25:49.110Z,24.08
2022-12-01T12:28:34.319Z,24.12
2022-12-01T12:31:14.705Z,24.15
2022-12-01T12:34:02.949Z,24.19
2022-12-01T12:36:50.865Z,24.24
2022-12-01T12:39:34.323Z,24.28
2022-12-01T12:42:09.919Z,24.32
2022-12-01T12:44:37.623Z,24.35
2022-12-01T12:47:22.694Z,24.39
2022-12-01T12:50:01.175Z,24.42
2022-12-01T12:52:35.820Z,24.43
2022-12-01T12:55:11.568Z,24.44
2022-12-01T13:07:53.113Z,24.75
2022-12-01T13:10:47.542Z,24.74
2022-12-01T13:13:32.985Z,24.78
2022-12-01T13:16:04.073Z,24.84
2022-12-01T13:18:59.568Z,24.90
2022-12-01T13:21:38.042Z,24.97
2022-12-01T13:24:06.290Z,25.01
2022-12-01T13:26:36.487Z,25.08
2022-12-01T13:29:07.686Z,25.13
2022-12-01T13:31:48.755Z,25.20
2022-12-01T13:34:34.766Z,25.25
2022-12-01T13:37:01.905Z,25.28
2022-12-01T13:39:37.880Z,25.31
2022-12-01T13:42:04.634Z,25.32
2022-12-01T13:44:38.208Z,25.34
2022-12-01T13:47:24.992Z,25.38
2022-12-01T13:49:53.375Z,25.38
2022-12-01T13:52:23.472Z,25.42
2022-12-01T13:55:08.302Z,25.48
2022-12-01T13:57:40.612Z,25.51
2022-12-01T14:00:30.817Z,25.56
2022-12-01T14:03:12.866Z,25.60
2022-12-01T14:05:39.667Z,25.63
2022-12-01T14:08:23.757Z,25.67
2022-12-01T14:11:00.623Z,25.72
2022-12-01T14:13:30.184Z,25.74
2022-12-01T14:15:59.740Z,25.76
2022-12-01T14:18:36.183Z,25.80
2022-12-01T14:21:06.651Z,25.82
2022-12-01T14:23:40.975Z,25.81
2022-12-01T14:26:18.232Z,25.84
2022-12-01T14:29:00.232Z,25.87
2022-12-01T14:31:32.985Z,25.86
2022-12-01T14:34:21.952Z,25.87
2022-12-01T14:37:03.634Z,25.87
2022-12-01T14:39:40.481Z,25.87
2022-12-01T14:42:15.847Z,25.86
2022-12-01T14:44:49.091Z,25.85
2022-12-01T14:47:16.008Z,25.84
2022-12-01T14:50:06.320Z,25.86
2022-12-01T14:52:45.276Z,25.84
2022-12-01T14:55:25.277Z,25.84
2022-12-01T14:58:00.886Z,25.83
2022-12-01T15:00:27.607Z,25.83
2022-12-01T15:02:59.378Z,25.85
2022-12-01T15:05:28.906Z,25.84
2022-12-01T15:08:18.745Z,25.85
2022-12-01T15:10:58.017Z,25.83
2022-12-01T15:13:27.848Z,25.84
2022-12-01T15:16:01.561Z,25.83
2022-12-01T15:18:29.696Z,25.84
2022-12-01T15:21:01.379Z,25.84
2022-12-01T15:23:28.348Z,25.84
2022-12-01T15:25:55.755Z,25.84
2022-12-01T15:28:33.384Z,25.84
2022-12-01T15:31:01.872Z,25.82
2022-12-01T15:33:37.274Z,25.84
2022-12-01T15:36:28.826Z,25.85
2022-12-01T15:38:56.243Z,25.83
2022-12-01T15:41:31.325Z,25.84
2022-12-01T15:43:59.923Z,25.83
2022-12-01T15:46:33.913Z,25.85
2022-12-01T15:49:29.815Z,25.84
2022-12-01T15:52:07.519Z,25.86
2022-12-01T15:54:34.592Z,25.86
2022-12-01T15:57:02.221Z,25.88
2022-12-01T15:59:39.957Z,25.89
2022-12-01T16:02:20.477Z,25.87
2022-12-01T16:04:49.435Z,25.86
2022-12-01T16:07:16.534Z,25.85
2022-12-01T16:09:57.627Z,25.84
2022-12-01T16:12:26.890Z,25.82
2022-12-01T16:15:12.310Z,25.84
2022-12-01T16:17:52.676Z,25.82
2022-12-01T16:23:26.335Z,26.07
2022-12-01T16:25:55.602Z,26.46
2022-12-01T16:28:33.230Z,26.79
2022-12-01T16:31:00.149Z,26.98
2022-12-01T16:33:28.708Z,27.12
2022-12-01T16:35:55.879Z,27.19
2022-12-01T16:38:25.102Z,27.25
2022-12-01T16:41:02.414Z,27.29
2022-12-01T16:43:29.663Z,27.28
2022-12-01T16:46:04.209Z,27.29
2022-12-01T16:48:31.775Z,27.27
2022-12-01T16:51:02.557Z,27.28
2022-12-01T16:53:29.310Z,27.27
2022-12-01T16:55:58.362Z,27.26
2022-12-01T16:58:25.705Z,27.25
2022-12-01T17:00:53.047Z,27.26
2022-12-01T17:03:25.075Z,27.26
2022-12-01T17:06:01.864Z,27.27
2022-12-01T17:08:30.318Z,27.27
2022-12-01T17:10:57.438Z,27.26
2022-12-01T17:13:24.261Z,27.25
2022-12-01T17:15:53.548Z,27.26
2022-12-01T17:18:22.125Z,27.26
2022-12-01T17:21:04.054Z,27.29
2022-12-01T17:23:30.840Z,27.27
2022-12-01T17:25:57.570Z,27.22
2022-12-01T17:28:24.377Z,27.19
2022-12-01T17:30:51.199Z,27.17
2022-12-01T17:33:18.216Z,27.16
2022-12-01T17:35:44.940Z,27.16
2022-12-01T17:38:11.621Z,27.16
2022-12-01T17:40:38.285Z,27.16
2022-12-01T17:43:08.011Z,27.18
2022-12-01T17:45:36.420Z,27.18
2022-12-01T17:48:03.395Z,27.20
2022-12-01T17:50:30.031Z,27.20
2022-12-01T17:52:56.830Z,27.20
2022-12-01T17:55:25.452Z,27.16
2022-12-01T17:57:52.567Z,26.87
2022-12-01T18:00:20.005Z,26.29
2022-12-01T18:02:46.943Z,25.86
2022-12-01T18:05:13.730Z,25.56
2022-12-01T18:07:40.757Z,25.36
2022-12-01T18:10:07.852Z,25.24
2022-12-01T18:12:35.629Z,25.18
2022-12-01T18:15:03.405Z,25.13
2022-12-01T18:17:30.186Z,25.11
2022-12-01T18:19:57.356Z,25.10
2022-12-01T18:22:23.985Z,25.09
2022-12-01T18:24:50.821Z,25.11
2022-12-01T18:27:17.790Z,25.11
2022-12-01T18:29:44.543Z,25.11
2022-12-01T18:32:11.282Z,25.10
2022-12-01T18:34:38.042Z,25.08
2022-12-01T18:37:04.831Z,25.09
2022-12-01T18:39:32.592Z,25.07
2022-12-01T18:41:59.671Z,25.08
2022-12-01T18:44:26.971Z,25.08
2022-12-01T18:46:53.806Z,25.09
2022-12-01T18:49:20.588Z,25.07
2022-12-01T18:51:47.382Z,25.08
2022-12-01T18:54:15.866Z,25.08
2022-12-01T18:56:43.074Z,25.09
2022-12-01T18:59:11.242Z,25.08
2022-12-01T19:01:41.547Z,25.09
2022-12-01T19:04:10.441Z,25.09
2022-12-01T19:06:39.247Z,25.08
2022-12-01T19:09:07.953Z,25.08
2022-12-01T19:11:35.863Z,25.08
2022-12-01T19:14:02.666Z,25.08
2022-12-01T19:16:30.116Z,25.07
2022-12-01T19:18:57.326Z,25.06
2022-12-01T19:21:24.082Z,25.06
2022-12-01T19:23:50.850Z,25.07
2022-12-01T19:26:21.064Z,25.06
2022-12-01T19:28:49.741Z,25.06
2022-12-01T19:31:22.296Z,25.06
2022-12-01T19:33:49.706Z,25.05
2022-12-01T19:36:19.374Z,25.05
2022-12-01T19:38:46.511Z,25.03
2022-12-01T19:41:14.065Z,25.05
2022-12-01T19:43:41.742Z,25.04
2022-12-01T19:46:13.691Z,25.05
2022-12-01T19:48:40.956Z,25.03
2022-12-01T19:51:15.286Z,25.05
2022-12-01T19:53:42.103Z,25.03
2022-12-01T19:56:09.619Z,25.04
2022-12-01T19:58:36.346Z,25.03
2022-12-01T20:01:08.800Z,25.05
2022-12-01T20:03:35.847Z,25.04
2022-12-01T20:06:05.428Z,25.05
2022-12-01T20:08:35.733Z,25.04
2022-12-01T20:11:03.801Z,25.06
2022-12-01T20:13:32.215Z,25.05
2022-12-01T20:16:13.970Z,25.08
2022-12-01T20:18:44.703Z,25.07
2022-12-01T20:21:17.680Z,25.08
2022-12-01T20:23:46.747Z,25.07
2022-12-01T20:26:14.792Z,25.07
2022-12-01T20:28:42.056Z,25.08
2022-12-01T20:31:31.338Z,25.08
2022-12-01T20:34:00.382Z,25.08
2022-12-01T20:36:27.611Z,25.07
2022-12-01T20:38:54.864Z,25.08
2022-12-01T20:41:21.978Z,25.09
2022-12-01T20:43:48.940Z,25.09
2022-12-01T20:46:16.838Z,25.09
2022-12-01T20:48:43.825Z,25.09
2022-12-01T20:51:13.307Z,25.10
2022-12-01T20:53:40.786Z,25.09
2022-12-01T20:56:10.852Z,25.10
2022-12-01T20:58:38.957Z,25.10
2022-12-01T21:01:17.208Z,25.10
2022-12-01T21:03:45.590Z,25.10
2022-12-01T21:06:15.048Z,25.10
2022-12-01T21:08:43.665Z,25.10
2022-12-01T21:11:36.620Z,25.11
2022-12-01T21:14:04.790Z,25.10
2022-12-01T21:16:33.078Z,25.11
2022-12-01T21:19:11.022Z,25.11
2022-12-01T21:21:41.953Z,25.12
2022-12-01T21:24:08.680Z,25.12
2022-12-01T21:26:40.405Z,25.12
2022-12-01T21:29:21.139Z,25.13
2022-12-01T21:31:50.764Z,25.13
2022-12-01T21:34:21.360Z,25.13
2022-12-01T21:36:50.095Z,25.13
2022-12-01T21:39:19.573Z,25.14
2022-12-01T21:41:47.947Z,25.13
2022-12-01T21:44:20.002Z,25.14
2022-12-01T21:46:50.183Z,25.13
2022-12-01T21:49:22.051Z,25.14
2022-12-01T21:51:52.784Z,25.13
2022-12-01T21:54:21.119Z,25.14
2022-12-01T21:56:48.963Z,25.13
2022-12-01T21:59:23.503Z,25.14
2022-12-01T22:01:57.646Z,25.14
2022-12-01T22:04:33.452Z,25.15
2022-12-01T22:07:00.180Z,25.15
2022-12-01T22:09:31.299Z,25.16
2022-12-01T22:12:11.646Z,25.16
2022-12-01T22:14:38.970Z,25.16
2022-12-01T22:17:05.662Z,25.17
2022-12-01T22:19:34.569Z,25.18
2022-12-01T22:22:23.249Z,25.19
2022-12-01T22:24:56.606Z,25.19
2022-12-01T22:27:41.798Z,25.19
2022-12-01T22:30:08.483Z,25.18
2022-12-01T22:32:58.545Z,25.19
2022-12-01T22:35:39.230Z,25.19
2022-12-01T22:38:05.992Z,25.19
2022-12-01T22:40:47.974Z,25.20
2022-12-01T22:43:17.748Z,25.20
2022-12-01T22:46:01.676Z,25.21
2022-12-01T22:48:36.246Z,25.21
2022-12-01T22:51:15.086Z,25.23
2022-12-01T22:53:43.958Z,25.22
2022-12-01T22:56:31.954Z,25.23
2022-12-01T22:58:58.722Z,25.23
2022-12-01T23:01:31.081Z,25.25
2022-12-01T23:04:22.023Z,25.25
2022-12-01T23:06:51.598Z,25.25
2022-12-01T23:09:19.095Z,25.25
2022-12-01T23:11:55.233Z,25.27
2022-12-01T23:14:23.618Z,25.27
2022-12-01T23:16:56.659Z,25.27
2022-12-01T23:19:23.439Z,25.27
2022-12-01T23:21:52.535Z,25.27
2022-12-01T23:24:19.374Z,25.26
2022-12-01T23:26:47.191Z,25.25
2022-12-01T23:29:13.928Z,25.25
2022-12-01T23:31:41.224Z,25.25
2022-12-01T23:34:15.158Z,25.25
2022-12-01T23:36:43.117Z,25.24
2022-12-01T23:39:12.746Z,25.24
2022-12-01T23:41:43.136Z,25.24
2022-12-01T23:44:38.822Z,25.24
2022-12-01T23:47:16.962Z,25.24
2022-12-01T23:49:43.945Z,25.23
2022-12-01T23:52:17.974Z,25.23
2022-12-01T23:54:44.917Z,25.23
2022-12-01T23:57:23.781Z,25.24
2022-12-01T23:59:54.486Z,25.24
